createdAt,value
2022-08-05T00:01:36.204Z,63.36
2022-08-05T00:04:17.618Z,63.48
2022-08-05T00:06:47.255Z,63.58
2022-08-05T00:09:19.365Z,63.79
2022-08-05T00:11:49.115Z,63.81
2022-08-05T00:14:27.490Z,63.81
2022-08-05T00:16:57.687Z,63.78
2022-08-05T00:19:33.135Z,63.74
2022-08-05T00:22:02.563Z,63.90
2022-08-05T00:24:30.735Z,63.90
2022-08-05T00:27:00.107Z,64.02
2022-08-05T00:29:38.199Z,64.10
2022-08-05T00:32:12.301Z,64.17
2022-08-05T00:35:06.037Z,64.17
2022-08-05T00:37:51.414Z,64.15
2022-08-05T00:40:27.003Z,64.33
2022-08-05T00:42:58.549Z,64.56
2022-08-05T00:45:39.114Z,64.50
2022-08-05T00:48:16.684Z,64.49
2022-08-05T00:50:46.689Z,64.62
2022-08-05T00:53:59.895Z,64.55
2022-08-05T00:56:05.596Z,64.79
2022-08-05T00:58:36.917Z,64.73
2022-08-05T01:01:08.654Z,64.67
2022-08-05T01:03:38.651Z,64.82
2022-08-05T01:06:14.240Z,64.91
2022-08-05T01:08:44.497Z,64.91
2022-08-05T01:11:14.487Z,65.11
2022-08-05T01:14:01.300Z,65.10
2022-08-05T01:16:48.427Z,65.10
2022-08-05T01:21:12.935Z,65.22
2022-08-05T01:24:02.774Z,65.43
2022-08-05T01:27:01.367Z,65.31
2022-08-05T01:29:49.706Z,65.39
2022-08-05T01:32:22.896Z,65.35
2022-08-05T01:34:57.921Z,65.44
2022-08-05T01:37:37.543Z,65.52
2022-08-05T01:40:13.073Z,65.42
2022-08-05T01:42:42.881Z,65.50
2022-08-05T01:45:11.042Z,65.44
2022-08-05T01:47:43.171Z,65.54
2022-08-05T01:50:15.231Z,65.58
2022-08-05T01:52:49.909Z,65.69
2022-08-05T01:55:21.704Z,65.62
2022-08-05T01:58:10.466Z,65.74
2022-08-05T02:00:43.822Z,65.86
2022-08-05T02:03:29.146Z,65.79
2022-08-05T02:06:03.757Z,65.88
2022-08-05T02:08:57.792Z,65.91
2022-08-05T02:11:33.067Z,65.93
2022-08-05T02:14:18.002Z,66.21
2022-08-05T02:16:53.273Z,66.08
2022-08-05T02:19:46.960Z,66.26
2022-08-05T02:22:25.764Z,66.40
2022-08-05T02:25:08.459Z,66.37
2022-08-05T02:27:57.919Z,66.43
2022-08-05T02:30:31.343Z,66.50
2022-08-05T02:33:03.049Z,66.62
2022-08-05T02:35:37.722Z,66.57
2022-08-05T02:38:13.376Z,66.73
2022-08-05T02:40:47.659Z,66.71
2022-08-05T02:43:16.875Z,66.76
2022-08-05T02:45:52.644Z,66.82
2022-08-05T02:48:28.825Z,66.92
2022-08-05T02:51:01.391Z,66.99
2022-08-05T02:53:39.406Z,66.99
2022-08-05T02:56:11.201Z,67.07
2022-08-05T02:58:44.534Z,67.18
2022-08-05T03:01:21.118Z,67.18
2022-08-05T03:04:12.874Z,67.23
2022-08-05T03:06:56.816Z,67.38
2022-08-05T03:09:37.561Z,67.46
2022-08-05T03:12:29.646Z,67.50
2022-08-05T03:14:57.662Z,67.52
2022-08-05T03:17:26.275Z,67.44
2022-08-05T03:19:54.778Z,67.53
2022-08-05T03:22:32.282Z,67.64
2022-08-05T03:25:11.649Z,67.72
2022-08-05T03:28:00.098Z,67.76
2022-08-05T03:30:33.548Z,67.75
2022-08-05T03:33:04.176Z,67.84
2022-08-05T03:35:40.784Z,67.95
2022-08-05T03:38:14.395Z,67.87
2022-08-05T03:40:47.474Z,68.01
2022-08-05T03:43:59.274Z,68.12
2022-08-05T03:46:05.414Z,68.18
2022-08-05T03:48:36.921Z,68.10
2022-08-05T03:52:48.929Z,68.14
2022-08-05T03:55:54.082Z,68.22
2022-08-05T03:57:00.144Z,68.25
2022-08-05T04:00:01.238Z,68.37
2022-08-05T04:02:37.349Z,68.43
2022-08-05T04:05:09.652Z,68.39
2022-08-05T04:07:57.301Z,68.37
2022-08-05T04:10:30.928Z,68.47
2022-08-05T04:13:00.482Z,68.22
2022-08-05T04:15:33.302Z,68.26
2022-08-05T04:18:06.755Z,68.28
2022-08-05T04:20:34.828Z,68.21
2022-08-05T04:23:02.500Z,68.43
2022-08-05T04:25:56.428Z,68.14
2022-08-05T04:28:28.467Z,68.23
2022-08-05T04:31:01.162Z,68.27
2022-08-05T04:33:54.614Z,68.13
2022-08-05T04:36:44.995Z,68.07
2022-08-05T04:39:05.350Z,68.05
2022-08-05T04:41:37.757Z,67.99
2022-08-05T04:44:09.572Z,67.76
2022-08-05T04:46:40.688Z,67.92
2022-08-05T04:49:15.015Z,67.79
2022-08-05T04:51:44.177Z,67.74
2022-08-05T04:54:12.387Z,67.71
2022-08-05T04:56:40.209Z,67.68
2022-08-05T04:59:24.115Z,67.52
2022-08-05T05:02:07.590Z,67.51
2022-08-05T05:04:48.065Z,67.32
2022-08-05T05:07:18.416Z,67.20
2022-08-05T05:09:52.112Z,67.41
2022-08-05T05:12:22.218Z,67.11
2022-08-05T05:14:51.352Z,66.85
2022-08-05T05:17:23.939Z,67.22
2022-08-05T05:19:56.416Z,67.05
2022-08-05T05:22:26.482Z,66.72
2022-08-05T05:24:57.572Z,66.66
2022-08-05T05:27:41.253Z,66.72
2022-08-05T05:30:28.706Z,66.70
2022-08-05T05:33:03.872Z,66.52
2022-08-05T05:35:48.080Z,66.42
2022-08-05T05:38:22.657Z,66.02
2022-08-05T05:40:58.011Z,66.02
2022-08-05T05:43:56.616Z,65.96
2022-08-05T05:46:15.798Z,65.52
2022-08-05T05:48:44.662Z,65.32
2022-08-05T05:51:24.514Z,65.08
2022-08-05T05:53:57.554Z,64.85
2022-08-05T05:56:33.800Z,64.74
2022-08-05T05:59:05.809Z,64.54
2022-08-05T06:01:38.165Z,64.17
2022-08-05T06:04:14.334Z,64.14
2022-08-05T06:06:47.500Z,63.82
2022-08-05T06:09:25.773Z,63.71
2022-08-05T06:12:01.423Z,63.26
2022-08-05T06:14:31.323Z,63.08
2022-08-05T06:16:59.710Z,63.00
2022-08-05T06:19:34.882Z,62.61
2022-08-05T06:22:04.622Z,62.42
2022-08-05T06:24:35.307Z,62.40
2022-08-05T06:27:04.048Z,61.96
2022-08-05T06:29:48.955Z,61.64
2022-08-05T06:32:24.803Z,61.49
2022-08-05T06:34:58.593Z,61.00
2022-08-05T06:37:58.112Z,60.82
2022-08-05T06:40:21.249Z,60.45
2022-08-05T06:42:52.635Z,60.15
2022-08-05T06:45:44.944Z,60.02
2022-08-05T06:48:36.809Z,59.88
2022-08-05T06:50:57.239Z,59.50
2022-08-05T06:53:28.552Z,59.45
2022-08-05T06:56:00.611Z,59.01
2022-08-05T06:58:34.819Z,58.67
2022-08-05T07:01:06.470Z,58.42
2022-08-05T07:03:34.805Z,58.26
2022-08-05T07:06:06.186Z,58.06
2022-08-05T07:08:47.958Z,57.60
2022-08-05T07:11:22.603Z,57.22
2022-08-05T07:14:19.954Z,56.77
2022-08-05T07:17:59.333Z,56.51
2022-08-05T07:20:31.481Z,56.31
2022-08-05T07:22:39.173Z,56.00
2022-08-05T07:25:23.554Z,55.88
2022-08-05T07:28:00.793Z,55.36
2022-08-05T07:30:38.693Z,55.16
2022-08-05T07:33:15.534Z,55.04
2022-08-05T07:36:04.970Z,54.80
2022-08-05T07:38:35.001Z,54.28
2022-08-05T07:42:12.826Z,54.05
2022-08-05T07:44:14.410Z,53.77
2022-08-05T07:46:49.761Z,53.46
2022-08-05T07:49:19.563Z,53.32
2022-08-05T07:51:53.503Z,52.97
2022-08-05T07:54:31.287Z,52.31
2022-08-05T07:57:18.130Z,52.09
2022-08-05T07:59:50.697Z,51.84
2022-08-05T08:02:26.587Z,51.59
2022-08-05T08:04:58.996Z,51.56
2022-08-05T08:07:28.487Z,50.99
2022-08-05T08:09:56.748Z,50.59
2022-08-05T08:12:37.284Z,50.48
2022-08-05T08:15:15.269Z,50.40
2022-08-05T08:17:49.672Z,50.01
2022-08-05T08:20:45.404Z,49.82
2022-08-05T08:23:59.809Z,49.64
2022-08-05T08:25:59.008Z,49.32
2022-08-05T08:28:36.942Z,49.54
2022-08-05T08:31:18.535Z,49.26
2022-08-05T08:33:51.596Z,48.66
2022-08-05T08:36:39.262Z,48.72
2022-08-05T08:39:15.019Z,48.47
2022-08-05T08:41:51.915Z,48.12
2022-08-05T08:45:21.422Z,48.01
2022-08-05T08:48:05.917Z,47.54
2022-08-05T08:50:51.967Z,47.40
2022-08-05T08:53:07.874Z,47.31
2022-08-05T08:56:05.279Z,46.84
2022-08-05T08:58:26.156Z,46.68
2022-08-05T09:01:08.628Z,46.21
2022-08-05T09:03:55.564Z,46.21
2022-08-05T09:06:29.993Z,46.17
2022-08-05T09:09:00.575Z,46.58
2022-08-05T09:11:52.921Z,46.01
2022-08-05T09:14:56.728Z,43.11
2022-08-05T09:17:09.320Z,39.81
2022-08-05T09:20:01.462Z,38.64
2022-08-05T09:22:32.035Z,36.75
2022-08-05T09:25:01.838Z,34.74
2022-08-05T09:28:05.292Z,32.76
2022-08-05T09:30:29.526Z,29.69
2022-08-05T09:33:02.289Z,26.79
2022-08-05T09:35:30.116Z,25.34
2022-08-05T09:38:12.481Z,23.12
2022-08-05T09:40:52.175Z,20.37
2022-08-05T09:43:40.232Z,18.92
2022-08-05T09:46:27.547Z,17.98
2022-08-05T09:49:07.225Z,16.14
2022-08-05T09:51:39.906Z,15.30
2022-08-05T09:54:09.331Z,14.71
2022-08-05T09:56:40.784Z,13.68
2022-08-05T09:59:24.234Z,12.97
2022-08-05T10:01:55.614Z,12.40
2022-08-05T10:04:36.048Z,11.77
2022-08-05T10:07:20.976Z,11.44
2022-08-05T10:10:14.339Z,11.21
2022-08-05T10:12:51.958Z,10.90
2022-08-05T10:15:35.243Z,10.68
2022-08-05T10:18:17.596Z,10.27
2022-08-05T10:20:47.818Z,10.23
2022-08-05T10:23:56.113Z,10.61
2022-08-05T10:26:17.206Z,10.02
2022-08-05T10:28:46.785Z,10.02
2022-08-05T10:32:52.877Z,10.11
2022-08-05T10:34:08.001Z,10.00
2022-08-05T10:36:37.862Z,9.69
2022-08-05T10:39:10.418Z,9.72
2022-08-05T10:42:04.061Z,9.53
2022-08-05T10:44:32.543Z,9.58
2022-08-05T10:47:25.889Z,9.76
2022-08-05T10:50:36.189Z,9.77
2022-08-05T10:53:05.013Z,9.73
2022-08-05T10:56:03.856Z,9.36
2022-08-05T10:58:21.043Z,9.44
2022-08-05T11:00:55.406Z,9.44
2022-08-05T11:03:30.576Z,9.63
2022-08-05T11:06:08.533Z,9.48
2022-08-05T11:09:13.237Z,9.13
2022-08-05T11:11:52.335Z,9.22
2022-08-05T11:14:57.894Z,9.46
2022-08-05T11:17:57.639Z,9.84
2022-08-05T11:20:44.237Z,10.51
2022-08-05T11:24:04.503Z,11.69
2022-08-05T11:26:38.804Z,12.67
2022-08-05T11:29:13.220Z,13.59
2022-08-05T11:31:56.766Z,14.48
2022-08-05T11:34:50.808Z,15.30
2022-08-05T11:38:29.839Z,15.97
2022-08-05T11:41:57.850Z,17.08
2022-08-05T11:44:10.759Z,17.92
2022-08-05T11:46:58.396Z,18.68
2022-08-05T11:49:34.336Z,19.44
2022-08-05T11:52:11.528Z,20.10
2022-08-05T11:54:41.825Z,21.04
2022-08-05T11:57:24.807Z,21.33
2022-08-05T11:59:54.192Z,21.69
2022-08-05T12:02:31.976Z,22.23
2022-08-05T12:05:06.954Z,22.92
2022-08-05T12:08:08.029Z,23.49
2022-08-05T12:10:43.402Z,24.07
2022-08-05T12:13:18.941Z,24.73
2022-08-05T12:16:14.999Z,25.36
2022-08-05T12:18:49.622Z,25.75
2022-08-05T12:21:23.730Z,25.99
2022-08-05T12:24:00.124Z,26.11
2022-08-05T12:26:44.335Z,26.44
2022-08-05T12:29:16.186Z,26.64
2022-08-05T12:32:07.626Z,27.11
2022-08-05T12:34:38.519Z,27.44
2022-08-05T12:37:21.536Z,27.85
2022-08-05T12:39:51.859Z,28.10
2022-08-05T12:42:25.418Z,28.39
2022-08-05T12:45:09.469Z,28.43
2022-08-05T12:47:38.238Z,28.68
2022-08-05T12:50:16.144Z,29.14
2022-08-05T12:52:55.505Z,29.39
2022-08-05T12:55:28.311Z,29.64
2022-08-05T12:58:49.151Z,29.63
2022-08-05T13:02:00.103Z,29.82
2022-08-05T13:03:38.879Z,29.90
2022-08-05T13:06:08.006Z,30.14
2022-08-05T13:08:40.066Z,30.32
2022-08-05T13:11:07.985Z,30.38
2022-08-05T13:14:05.601Z,30.58
2022-08-05T13:16:27.844Z,30.74
2022-08-05T13:18:59.672Z,31.05
2022-08-05T13:21:38.084Z,31.39
2022-08-05T13:24:36.617Z,31.42
2022-08-05T13:27:04.877Z,31.81
2022-08-05T13:29:39.074Z,32.09
2022-08-05T13:32:33.064Z,31.81
2022-08-05T13:35:04.137Z,32.06
2022-08-05T13:37:34.904Z,32.07
2022-08-05T13:40:16.336Z,32.38
2022-08-05T13:42:48.053Z,32.58
2022-08-05T13:45:23.335Z,32.46
2022-08-05T13:48:08.919Z,32.58
2022-08-05T13:50:37.674Z,32.95
2022-08-05T13:53:09.040Z,33.09
2022-08-05T13:55:49.226Z,33.33
2022-08-05T13:58:30.802Z,33.38
2022-08-05T14:00:59.666Z,33.32
2022-08-05T14:03:28.387Z,33.11
2022-08-05T14:06:25.148Z,33.28
2022-08-05T14:08:44.703Z,33.18
2022-08-05T14:11:21.120Z,33.30
2022-08-05T14:13:51.403Z,33.21
2022-08-05T14:16:23.173Z,33.35
2022-08-05T14:18:51.245Z,33.10
2022-08-05T14:22:07.791Z,33.12
2022-08-05T14:24:10.945Z,32.93
2022-08-05T14:26:51.460Z,33.01
2022-08-05T14:29:26.779Z,32.97
2022-08-05T14:32:12.447Z,33.01
2022-08-05T14:34:42.522Z,32.90
2022-08-05T14:37:13.315Z,32.63
2022-08-05T14:39:56.889Z,32.59
2022-08-05T14:42:25.062Z,32.57
2022-08-05T14:44:54.505Z,32.55
2022-08-05T14:48:03.882Z,32.73
2022-08-05T14:50:18.503Z,32.77
2022-08-05T14:52:53.630Z,32.86
2022-08-05T14:55:38.451Z,32.63
2022-08-05T14:58:12.196Z,32.88
2022-08-05T15:00:59.071Z,32.92
2022-08-05T15:03:33.887Z,32.85
2022-08-05T15:06:14.781Z,33.17
2022-08-05T15:08:59.688Z,33.15
2022-08-05T15:11:51.809Z,33.35
2022-08-05T15:14:34.491Z,33.12
2022-08-05T15:17:05.426Z,33.30
2022-08-05T15:19:49.025Z,33.39
2022-08-05T15:22:17.316Z,33.36
2022-08-05T15:24:45.709Z,33.75
2022-08-05T15:27:13.468Z,33.68
2022-08-05T15:29:42.307Z,33.47
2022-08-05T15:32:10.603Z,33.26
2022-08-05T15:34:38.291Z,33.50
2022-08-05T15:37:06.939Z,33.61
2022-08-05T15:40:59.659Z,33.82
2022-08-05T15:42:55.310Z,33.53
2022-08-05T15:45:27.112Z,33.66
2022-08-05T15:48:06.931Z,33.78
2022-08-05T15:50:34.713Z,34.08
2022-08-05T15:53:05.581Z,33.98
2022-08-05T15:56:02.593Z,34.18
2022-08-05T15:58:23.294Z,34.06
2022-08-05T16:01:11.855Z,34.48
2022-08-05T16:03:40.975Z,34.34
2022-08-05T16:06:11.335Z,34.52
2022-08-05T16:08:39.957Z,34.52
2022-08-05T16:11:10.310Z,34.72
2022-08-05T16:13:38.112Z,34.65
2022-08-05T16:16:06.286Z,35.05
2022-08-05T16:18:34.204Z,34.95
2022-08-05T16:21:04.635Z,35.06
2022-08-05T16:23:54.019Z,35.18
2022-08-05T16:26:26.454Z,35.38
2022-08-05T16:28:56.047Z,35.45
2022-08-05T16:31:23.941Z,35.76
2022-08-05T16:33:54.535Z,35.74
2022-08-05T16:36:23.849Z,35.63
2022-08-05T16:38:55.517Z,35.78
2022-08-05T16:42:14.339Z,35.71
2022-08-05T16:44:16.778Z,36.02
2022-08-05T16:46:56.123Z,36.05
2022-08-05T16:49:24.195Z,36.16
2022-08-05T16:51:54.840Z,36.14
2022-08-05T16:54:30.349Z,36.29
2022-08-05T16:57:00.834Z,36.23
2022-08-05T16:59:30.639Z,36.52
2022-08-05T17:01:59.511Z,36.87
2022-08-05T17:04:28.776Z,36.67
2022-08-05T17:07:01.258Z,37.06
2022-08-05T17:09:57.890Z,36.92
2022-08-05T17:12:17.790Z,37.23
2022-08-05T17:14:50.480Z,37.39
2022-08-05T17:17:19.711Z,37.25
2022-08-05T17:19:55.485Z,37.73
2022-08-05T17:22:25.567Z,37.99
2022-08-05T17:24:57.942Z,37.80
2022-08-05T17:27:33.558Z,38.37
2022-08-05T17:30:12.095Z,38.87
2022-08-05T17:32:47.955Z,39.03
2022-08-05T17:35:15.819Z,39.29
2022-08-05T17:37:50.461Z,39.76
2022-08-05T17:40:22.285Z,39.75
2022-08-05T17:42:53.108Z,40.35
2022-08-05T17:45:22.888Z,40.65
2022-08-05T17:47:54.841Z,40.97
2022-08-05T17:50:30.457Z,41.42
2022-08-05T17:53:01.118Z,41.87
2022-08-05T17:55:34.666Z,42.30
2022-08-05T17:58:09.691Z,42.68
2022-08-05T18:00:44.465Z,42.99
2022-08-05T18:03:33.445Z,43.69
2022-08-05T18:06:11.288Z,44.26
2022-08-05T18:08:44.974Z,44.76
2022-08-05T18:11:24.200Z,45.16
2022-08-05T18:14:03.590Z,45.59
2022-08-05T18:16:33.446Z,45.94
2022-08-05T18:19:01.792Z,46.25
2022-08-05T18:22:07.592Z,46.58
2022-08-05T18:24:17.259Z,47.11
2022-08-05T18:26:45.401Z,47.32
2022-08-05T18:29:16.710Z,47.55
2022-08-05T18:31:44.867Z,47.89
2022-08-05T18:34:12.883Z,48.13
2022-08-05T18:36:43.531Z,48.28
2022-08-05T18:39:42.055Z,48.75
2022-08-05T18:42:06.051Z,48.91
2022-08-05T18:44:55.382Z,49.26
2022-08-05T18:47:26.439Z,49.58
2022-08-05T18:50:15.736Z,49.69
2022-08-05T18:52:50.922Z,50.03
2022-08-05T18:55:21.595Z,50.19
2022-08-05T18:57:53.875Z,50.54
2022-08-05T19:00:28.692Z,50.62
2022-08-05T19:03:03.766Z,50.84
2022-08-05T19:06:11.479Z,51.08
2022-08-05T19:08:30.786Z,51.29
2022-08-05T19:11:02.739Z,51.47
2022-08-05T19:13:35.998Z,51.70
2022-08-05T19:16:24.939Z,51.98
2022-08-05T19:18:56.852Z,52.16
2022-08-05T19:21:27.542Z,52.30
2022-08-05T19:24:05.376Z,52.46
2022-08-05T19:26:54.409Z,52.61
2022-08-05T19:29:26.729Z,52.75
2022-08-05T19:32:05.584Z,52.95
2022-08-05T19:34:36.514Z,53.07
2022-08-05T19:37:04.336Z,53.28
2022-08-05T19:39:32.477Z,53.37
2022-08-05T19:42:34.888Z,53.69
2022-08-05T19:45:01.564Z,53.67
2022-08-05T19:47:29.308Z,54.01
2022-08-05T19:50:00.859Z,54.03
2022-08-05T19:52:31.716Z,54.32
2022-08-05T19:55:07.298Z,54.50
2022-08-05T19:58:10.409Z,54.90
2022-08-05T20:00:37.315Z,55.03
2022-08-05T20:03:09.251Z,55.19
2022-08-05T20:05:49.893Z,55.27
2022-08-05T20:08:20.114Z,55.40
2022-08-05T20:10:49.628Z,55.63
2022-08-05T20:13:18.263Z,55.80
2022-08-05T20:15:58.287Z,56.00
2022-08-05T20:18:33.622Z,56.12
2022-08-05T20:21:06.578Z,56.44
2022-08-05T20:23:40.480Z,56.40
2022-08-05T20:26:19.880Z,56.77
2022-08-05T20:28:51.397Z,57.01
2022-08-05T20:31:28.785Z,56.87
2022-08-05T20:34:10.687Z,57.15
2022-08-05T20:36:39.018Z,57.51
2022-08-05T20:39:16.143Z,57.57
2022-08-05T20:41:46.811Z,57.82
2022-08-05T20:44:30.136Z,57.65
2022-08-05T20:47:00.828Z,58.02
2022-08-05T20:49:28.504Z,57.99
2022-08-05T20:51:57.342Z,58.09
2022-08-05T20:54:42.930Z,58.17
2022-08-05T20:57:24.532Z,58.46
2022-08-05T21:00:19.607Z,58.59
2022-08-05T21:02:56.087Z,58.79
2022-08-05T21:05:24.997Z,58.90
2022-08-05T21:07:52.855Z,58.96
2022-08-05T21:10:21.571Z,59.09
2022-08-05T21:13:08.280Z,59.44
2022-08-05T21:15:37.424Z,59.44
2022-08-05T21:18:05.204Z,59.70
2022-08-05T21:20:34.334Z,59.70
2022-08-05T21:23:03.051Z,59.85
2022-08-05T21:25:33.829Z,59.85
2022-08-05T21:28:03.318Z,59.91
2022-08-05T21:30:31.661Z,60.04
2022-08-05T21:32:59.989Z,60.35
2022-08-05T21:35:55.559Z,60.27
2022-08-05T21:38:19.201Z,60.56
2022-08-05T21:40:47.005Z,60.59
2022-08-05T21:43:23.867Z,60.49
2022-08-05T21:45:57.374Z,60.74
2022-08-05T21:48:28.883Z,60.78
2022-08-05T21:50:57.324Z,61.04
2022-08-05T21:53:27.650Z,61.03
2022-08-05T21:56:05.882Z,61.06
2022-08-05T21:58:42.093Z,61.15
2022-08-05T22:01:10.661Z,61.33
2022-08-05T22:03:49.016Z,61.28
2022-08-05T22:06:35.274Z,61.37
2022-08-05T22:09:14.651Z,61.43
2022-08-05T22:11:46.978Z,61.41
2022-08-05T22:14:32.785Z,61.60
2022-08-05T22:17:05.349Z,61.56
2022-08-05T22:20:02.075Z,61.50
2022-08-05T22:22:27.117Z,61.62
2022-08-05T22:25:27.704Z,61.77
2022-08-05T22:28:08.219Z,61.75
2022-08-05T22:30:55.893Z,61.89
2022-08-05T22:33:56.996Z,61.89
2022-08-05T22:36:15.174Z,61.83
2022-08-05T22:38:48.095Z,62.04
2022-08-05T22:42:05.411Z,61.90
2022-08-05T22:44:08.595Z,61.94
2022-08-05T22:46:39.808Z,62.02
2022-08-05T22:49:12.494Z,62.19
2022-08-05T22:52:04.700Z,62.01
2022-08-05T22:54:36.528Z,62.17
2022-08-05T22:57:05.540Z,62.17
2022-08-05T22:59:44.292Z,62.15
2022-08-05T23:02:17.895Z,62.28
2022-08-05T23:04:51.152Z,62.26
2022-08-05T23:07:21.964Z,62.25
2022-08-05T23:09:53.345Z,62.40
2022-08-05T23:12:32.490Z,62.35
2022-08-05T23:15:08.715Z,62.50
2022-08-05T23:18:01.572Z,62.44
2022-08-05T23:20:25.671Z,62.52
2022-08-05T23:22:56.011Z,62.46
2022-08-05T23:25:52.671Z,62.56
2022-08-05T23:28:12.697Z,62.53
2022-08-05T23:30:43.441Z,62.62
2022-08-05T23:33:22.604Z,62.63
2022-08-05T23:35:56.223Z,62.61
2022-08-05T23:38:26.751Z,62.84
2022-08-05T23:40:54.598Z,62.73
2022-08-05T23:43:24.826Z,62.76
2022-08-05T23:46:20.666Z,62.80
2022-08-05T23:49:00.512Z,62.91
2022-08-05T23:51:53.933Z,63.06
2022-08-05T23:54:30.480Z,62.76
2022-08-05T23:57:05.041Z,62.84
